sensor_id;sensor_type;location;lat;lon;timestamp;temperature;humidity
41756;DHT22;27435;48.480;9.258;2022-07-04T00:01:19;19.70;85.30
41756;DHT22;27435;48.480;9.258;2022-07-04T00:03:45;19.50;86.10
41756;DHT22;27435;48.480;9.258;2022-07-04T00:06:11;19.40;86.50
41756;DHT22;27435;48.480;9.258;2022-07-04T00:08:36;19.40;87.40
41756;DHT22;27435;48.480;9.258;2022-07-04T00:11:02;19.40;88.20
41756;DHT22;27435;48.480;9.258;2022-07-04T00:13:27;19.40;87.80
41756;DHT22;27435;48.480;9.258;2022-07-04T00:15:53;19.40;88.30
41756;DHT22;27435;48.480;9.258;2022-07-04T00:18:19;19.30;89.30
41756;DHT22;27435;48.480;9.258;2022-07-04T00:20:44;19.30;89.50
41756;DHT22;27435;48.480;9.258;2022-07-04T00:23:10;19.20;89.50
41756;DHT22;27435;48.480;9.258;2022-07-04T00:25:36;19.10;90.20
41756;DHT22;27435;48.480;9.258;2022-07-04T00:28:01;19.00;90.90
41756;DHT22;27435;48.480;9.258;2022-07-04T00:30:27;18.90;91.30
41756;DHT22;27435;48.480;9.258;2022-07-04T00:32:52;18.90;91.60
41756;DHT22;27435;48.480;9.258;2022-07-04T00:35:18;18.90;91.40
41756;DHT22;27435;48.480;9.258;2022-07-04T00:37:44;18.80;92.10
41756;DHT22;27435;48.480;9.258;2022-07-04T00:40:10;18.80;92.60
41756;DHT22;27435;48.480;9.258;2022-07-04T00:42:35;18.70;92.70
41756;DHT22;27435;48.480;9.258;2022-07-04T00:45:01;18.80;92.30
41756;DHT22;27435;48.480;9.258;2022-07-04T00:47:27;18.80;92.60
41756;DHT22;27435;48.480;9.258;2022-07-04T00:49:52;18.80;93.10
41756;DHT22;27435;48.480;9.258;2022-07-04T00:52:18;18.70;93.30
41756;DHT22;27435;48.480;9.258;2022-07-04T00:54:45;18.60;93.60
41756;DHT22;27435;48.480;9.258;2022-07-04T00:57:13;18.70;94.00
41756;DHT22;27435;48.480;9.258;2022-07-04T00:59:39;18.70;94.00
41756;DHT22;27435;48.480;9.258;2022-07-04T01:02:05;18.80;94.20
41756;DHT22;27435;48.480;9.258;2022-07-04T01:04:30;18.80;93.90
41756;DHT22;27435;48.480;9.258;2022-07-04T01:06:56;18.70;94.10
41756;DHT22;27435;48.480;9.258;2022-07-04T01:09:22;18.80;93.90
41756;DHT22;27435;48.480;9.258;2022-07-04T01:11:51;18.90;93.80
41756;DHT22;27435;48.480;9.258;2022-07-04T01:14:17;18.90;93.10
41756;DHT22;27435;48.480;9.258;2022-07-04T01:16:43;18.70;93.90
41756;DHT22;27435;48.480;9.258;2022-07-04T01:19:08;18.40;95.30
41756;DHT22;27435;48.480;9.258;2022-07-04T01:21:34;18.30;95.30
41756;DHT22;27435;48.480;9.258;2022-07-04T01:24:00;18.30;95.20
41756;DHT22;27435;48.480;9.258;2022-07-04T01:26:27;18.20;95.60
41756;DHT22;27435;48.480;9.258;2022-07-04T01:28:53;18.20;95.70
41756;DHT22;27435;48.480;9.258;2022-07-04T01:31:18;18.20;95.50
41756;DHT22;27435;48.480;9.258;2022-07-04T01:33:44;18.20;95.80
41756;DHT22;27435;48.480;9.258;2022-07-04T01:36:10;18.20;95.60
41756;DHT22;27435;48.480;9.258;2022-07-04T01:38:35;18.30;95.50
41756;DHT22;27435;48.480;9.258;2022-07-04T01:41:01;18.40;95.00
41756;DHT22;27435;48.480;9.258;2022-07-04T01:43:26;18.40;95.70
41756;DHT22;27435;48.480;9.258;2022-07-04T01:45:52;18.40;94.80
41756;DHT22;27435;48.480;9.258;2022-07-04T01:48:18;18.40;94.50
41756;DHT22;27435;48.480;9.258;2022-07-04T01:50:43;18.50;94.90
41756;DHT22;27435;48.480;9.258;2022-07-04T01:53:09;18.50;94.80
41756;DHT22;27435;48.480;9.258;2022-07-04T01:55:34;18.60;95.00
41756;DHT22;27435;48.480;9.258;2022-07-04T01:58:01;18.70;93.80
41756;DHT22;27435;48.480;9.258;2022-07-04T02:00:27;18.70;93.60
41756;DHT22;27435;48.480;9.258;2022-07-04T02:03:11;18.60;93.80
41756;DHT22;27435;48.480;9.258;2022-07-04T02:05:36;18.70;93.30
41756;DHT22;27435;48.480;9.258;2022-07-04T02:08:06;18.70;93.30
41756;DHT22;27435;48.480;9.258;2022-07-04T02:10:32;18.70;94.30
41756;DHT22;27435;48.480;9.258;2022-07-04T02:12:58;18.70;95.00
41756;DHT22;27435;48.480;9.258;2022-07-04T02:15:37;18.60;95.30
41756;DHT22;27435;48.480;9.258;2022-07-04T02:18:04;18.60;95.50
41756;DHT22;27435;48.480;9.258;2022-07-04T02:20:30;18.80;95.00
41756;DHT22;27435;48.480;9.258;2022-07-04T02:22:56;18.80;94.80
41756;DHT22;27435;48.480;9.258;2022-07-04T02:25:22;18.80;95.00
41756;DHT22;27435;48.480;9.258;2022-07-04T02:27:48;18.80;95.20
41756;DHT22;27435;48.480;9.258;2022-07-04T02:30:13;18.90;94.80
41756;DHT22;27435;48.480;9.258;2022-07-04T02:32:39;18.80;95.40
41756;DHT22;27435;48.480;9.258;2022-07-04T02:35:06;18.70;95.90
41756;DHT22;27435;48.480;9.258;2022-07-04T02:37:32;18.70;96.30
41756;DHT22;27435;48.480;9.258;2022-07-04T02:39:57;18.60;96.20
41756;DHT22;27435;48.480;9.258;2022-07-04T02:42:23;18.50;96.50
41756;DHT22;27435;48.480;9.258;2022-07-04T02:44:52;18.40;97.10
41756;DHT22;27435;48.480;9.258;2022-07-04T02:47:18;18.60;96.70
41756;DHT22;27435;48.480;9.258;2022-07-04T02:49:43;18.50;96.70
41756;DHT22;27435;48.480;9.258;2022-07-04T02:52:09;18.50;97.10
41756;DHT22;27435;48.480;9.258;2022-07-04T02:54:35;18.70;96.60
41756;DHT22;27435;48.480;9.258;2022-07-04T02:57:00;18.80;95.80
41756;DHT22;27435;48.480;9.258;2022-07-04T02:59:26;18.90;95.40
41756;DHT22;27435;48.480;9.258;2022-07-04T03:01:52;18.90;95.40
41756;DHT22;27435;48.480;9.258;2022-07-04T03:04:18;18.90;95.10
41756;DHT22;27435;48.480;9.258;2022-07-04T03:06:43;18.80;96.80
41756;DHT22;27435;48.480;9.258;2022-07-04T03:09:09;18.60;98.00
41756;DHT22;27435;48.480;9.258;2022-07-04T03:11:35;18.50;98.50
41756;DHT22;27435;48.480;9.258;2022-07-04T03:14:01;18.40;98.20
41756;DHT22;27435;48.480;9.258;2022-07-04T03:16:27;18.30;98.00
41756;DHT22;27435;48.480;9.258;2022-07-04T03:18:53;18.30;97.60
41756;DHT22;27435;48.480;9.258;2022-07-04T03:21:18;18.40;97.40
41756;DHT22;27435;48.480;9.258;2022-07-04T03:23:44;18.50;96.50
41756;DHT22;27435;48.480;9.258;2022-07-04T03:26:26;18.60;96.10
41756;DHT22;27435;48.480;9.258;2022-07-04T03:28:52;18.60;96.10
41756;DHT22;27435;48.480;9.258;2022-07-04T03:31:18;18.70;95.90
41756;DHT22;27435;48.480;9.258;2022-07-04T03:33:43;18.80;95.50
41756;DHT22;27435;48.480;9.258;2022-07-04T03:36:09;18.80;96.50
41756;DHT22;27435;48.480;9.258;2022-07-04T03:38:35;18.70;98.40
41756;DHT22;27435;48.480;9.258;2022-07-04T03:41:01;18.50;99.00
41756;DHT22;27435;48.480;9.258;2022-07-04T03:43:26;18.40;99.00
41756;DHT22;27435;48.480;9.258;2022-07-04T03:45:52;18.40;98.60
41756;DHT22;27435;48.480;9.258;2022-07-04T03:48:18;18.40;98.30
41756;DHT22;27435;48.480;9.258;2022-07-04T03:50:43;18.40;99.00
41756;DHT22;27435;48.480;9.258;2022-07-04T03:53:09;18.40;98.20
41756;DHT22;27435;48.480;9.258;2022-07-04T03:55:34;18.40;98.10
41756;DHT22;27435;48.480;9.258;2022-07-04T03:58:00;18.40;98.10
41756;DHT22;27435;48.480;9.258;2022-07-04T04:00:26;18.40;98.80
41756;DHT22;27435;48.480;9.258;2022-07-04T04:02:52;18.50;98.90
41756;DHT22;27435;48.480;9.258;2022-07-04T04:05:18;18.60;98.10
41756;DHT22;27435;48.480;9.258;2022-07-04T04:08:01;18.70;96.50
41756;DHT22;27435;48.480;9.258;2022-07-04T04:10:29;18.60;95.60
41756;DHT22;27435;48.480;9.258;2022-07-04T04:12:56;18.60;95.90
41756;DHT22;27435;48.480;9.258;2022-07-04T04:15:22;18.70;95.20
41756;DHT22;27435;48.480;9.258;2022-07-04T04:17:48;18.70;95.00
41756;DHT22;27435;48.480;9.258;2022-07-04T04:20:13;18.60;95.60
41756;DHT22;27435;48.480;9.258;2022-07-04T04:22:39;18.60;94.80
41756;DHT22;27435;48.480;9.258;2022-07-04T04:25:05;18.70;94.50
41756;DHT22;27435;48.480;9.258;2022-07-04T04:27:31;18.70;94.60
41756;DHT22;27435;48.480;9.258;2022-07-04T04:29:56;18.70;94.60
41756;DHT22;27435;48.480;9.258;2022-07-04T04:32:22;18.80;94.70
41756;DHT22;27435;48.480;9.258;2022-07-04T04:34:47;18.90;94.70
41756;DHT22;27435;48.480;9.258;2022-07-04T04:37:13;18.80;94.60
41756;DHT22;27435;48.480;9.258;2022-07-04T04:39:39;18.60;95.30
41756;DHT22;27435;48.480;9.258;2022-07-04T04:42:05;18.50;95.40
41756;DHT22;27435;48.480;9.258;2022-07-04T04:44:30;18.40;94.20
41756;DHT22;27435;48.480;9.258;2022-07-04T04:46:58;18.50;94.20
41756;DHT22;27435;48.480;9.258;2022-07-04T04:49:24;18.60;93.80
41756;DHT22;27435;48.480;9.258;2022-07-04T04:51:49;18.70;93.10
41756;DHT22;27435;48.480;9.258;2022-07-04T04:54:15;18.70;93.30
41756;DHT22;27435;48.480;9.258;2022-07-04T04:56:41;18.70;93.70
41756;DHT22;27435;48.480;9.258;2022-07-04T04:59:06;18.80;93.50
41756;DHT22;27435;48.480;9.258;2022-07-04T05:01:33;18.90;92.40
41756;DHT22;27435;48.480;9.258;2022-07-04T05:03:59;18.80;93.00
41756;DHT22;27435;48.480;9.258;2022-07-04T05:06:25;18.70;92.50
41756;DHT22;27435;48.480;9.258;2022-07-04T05:08:50;18.60;91.50
41756;DHT22;27435;48.480;9.258;2022-07-04T05:11:16;18.60;91.60
41756;DHT22;27435;48.480;9.258;2022-07-04T05:13:42;18.60;91.30
41756;DHT22;27435;48.480;9.258;2022-07-04T05:16:07;18.70;91.30
41756;DHT22;27435;48.480;9.258;2022-07-04T05:18:33;18.80;90.30
41756;DHT22;27435;48.480;9.258;2022-07-04T05:20:59;18.80;89.90
41756;DHT22;27435;48.480;9.258;2022-07-04T05:23:25;18.80;90.40
41756;DHT22;27435;48.480;9.258;2022-07-04T05:25:51;19.00;89.20
41756;DHT22;27435;48.480;9.258;2022-07-04T05:28:17;19.20;88.60
41756;DHT22;27435;48.480;9.258;2022-07-04T05:30:43;19.20;87.60
41756;DHT22;27435;48.480;9.258;2022-07-04T05:33:09;19.20;87.30
41756;DHT22;27435;48.480;9.258;2022-07-04T05:35:35;19.40;85.80
41756;DHT22;27435;48.480;9.258;2022-07-04T05:38:01;19.70;86.10
41756;DHT22;27435;48.480;9.258;2022-07-04T05:40:27;19.90;84.30
41756;DHT22;27435;48.480;9.258;2022-07-04T05:42:52;19.80;83.90
41756;DHT22;27435;48.480;9.258;2022-07-04T05:45:18;20.00;83.30
41756;DHT22;27435;48.480;9.258;2022-07-04T05:47:44;20.20;82.90
41756;DHT22;27435;48.480;9.258;2022-07-04T05:50:10;20.60;81.80
41756;DHT22;27435;48.480;9.258;2022-07-04T05:52:36;20.60;81.30
41756;DHT22;27435;48.480;9.258;2022-07-04T05:55:01;20.60;81.60
41756;DHT22;27435;48.480;9.258;2022-07-04T05:57:27;20.90;79.80
41756;DHT22;27435;48.480;9.258;2022-07-04T05:59:53;21.00;80.40
41756;DHT22;27435;48.480;9.258;2022-07-04T06:02:22;20.70;80.70
41756;DHT22;27435;48.480;9.258;2022-07-04T06:04:52;21.00;80.00
41756;DHT22;27435;48.480;9.258;2022-07-04T06:07:28;20.70;80.80
41756;DHT22;27435;48.480;9.258;2022-07-04T06:09:54;20.70;81.40
41756;DHT22;27435;48.480;9.258;2022-07-04T06:12:19;20.90;80.00
41756;DHT22;27435;48.480;9.258;2022-07-04T06:14:46;20.90;80.10
41756;DHT22;27435;48.480;9.258;2022-07-04T06:17:12;20.90;80.30
41756;DHT22;27435;48.480;9.258;2022-07-04T06:19:38;20.90;79.40
41756;DHT22;27435;48.480;9.258;2022-07-04T06:22:03;20.90;80.50
41756;DHT22;27435;48.480;9.258;2022-07-04T06:24:29;20.80;80.30
41756;DHT22;27435;48.480;9.258;2022-07-04T06:26:55;20.70;81.00
41756;DHT22;27435;48.480;9.258;2022-07-04T06:29:20;20.40;81.30
41756;DHT22;27435;48.480;9.258;2022-07-04T06:31:46;20.70;81.30
41756;DHT22;27435;48.480;9.258;2022-07-04T06:34:12;21.20;79.30
41756;DHT22;27435;48.480;9.258;2022-07-04T06:36:56;21.50;78.20
41756;DHT22;27435;48.480;9.258;2022-07-04T06:39:21;21.80;77.60
41756;DHT22;27435;48.480;9.258;2022-07-04T06:41:47;21.60;77.20
41756;DHT22;27435;48.480;9.258;2022-07-04T06:44:13;21.40;77.90
41756;DHT22;27435;48.480;9.258;2022-07-04T06:46:38;21.50;77.90
41756;DHT22;27435;48.480;9.258;2022-07-04T06:49:05;21.80;77.10
41756;DHT22;27435;48.480;9.258;2022-07-04T06:52:00;21.80;76.90
41756;DHT22;27435;48.480;9.258;2022-07-04T06:54:31;22.00;76.00
41756;DHT22;27435;48.480;9.258;2022-07-04T06:56:57;21.80;76.50
41756;DHT22;27435;48.480;9.258;2022-07-04T06:59:23;21.60;77.50
41756;DHT22;27435;48.480;9.258;2022-07-04T07:01:48;21.50;77.80
41756;DHT22;27435;48.480;9.258;2022-07-04T07:04:22;21.40;78.00
41756;DHT22;27435;48.480;9.258;2022-07-04T07:06:49;21.50;78.30
41756;DHT22;27435;48.480;9.258;2022-07-04T07:09:15;21.30;79.30
41756;DHT22;27435;48.480;9.258;2022-07-04T07:11:41;21.20;79.00
41756;DHT22;27435;48.480;9.258;2022-07-04T07:14:06;20.90;79.80
41756;DHT22;27435;48.480;9.258;2022-07-04T07:16:32;21.00;80.10
41756;DHT22;27435;48.480;9.258;2022-07-04T07:18:58;21.30;79.10
41756;DHT22;27435;48.480;9.258;2022-07-04T07:21:23;21.50;78.50
41756;DHT22;27435;48.480;9.258;2022-07-04T07:23:49;21.30;77.90
41756;DHT22;27435;48.480;9.258;2022-07-04T07:26:15;21.50;79.40
41756;DHT22;27435;48.480;9.258;2022-07-04T07:28:41;21.80;77.70
41756;DHT22;27435;48.480;9.258;2022-07-04T07:31:07;22.10;75.40
41756;DHT22;27435;48.480;9.258;2022-07-04T07:33:33;22.30;75.10
41756;DHT22;27435;48.480;9.258;2022-07-04T07:35:59;22.10;75.00
41756;DHT22;27435;48.480;9.258;2022-07-04T07:38:24;21.90;75.80
41756;DHT22;27435;48.480;9.258;2022-07-04T07:40:50;22.10;75.80
41756;DHT22;27435;48.480;9.258;2022-07-04T07:43:16;22.50;75.30
41756;DHT22;27435;48.480;9.258;2022-07-04T07:45:42;22.70;74.40
41756;DHT22;27435;48.480;9.258;2022-07-04T07:48:08;22.70;74.40
41756;DHT22;27435;48.480;9.258;2022-07-04T07:50:33;22.60;74.10
41756;DHT22;27435;48.480;9.258;2022-07-04T07:52:59;22.50;75.10
41756;DHT22;27435;48.480;9.258;2022-07-04T07:55:25;22.80;74.90
41756;DHT22;27435;48.480;9.258;2022-07-04T07:57:51;22.70;75.10
41756;DHT22;27435;48.480;9.258;2022-07-04T08:00:17;22.60;76.10
41756;DHT22;27435;48.480;9.258;2022-07-04T08:02:43;23.20;74.60
41756;DHT22;27435;48.480;9.258;2022-07-04T08:05:27;23.40;73.20
41756;DHT22;27435;48.480;9.258;2022-07-04T08:07:53;23.50;72.90
41756;DHT22;27435;48.480;9.258;2022-07-04T08:10:18;23.30;73.20
41756;DHT22;27435;48.480;9.258;2022-07-04T08:12:44;23.10;74.10
41756;DHT22;27435;48.480;9.258;2022-07-04T08:15:10;23.30;73.80
41756;DHT22;27435;48.480;9.258;2022-07-04T08:17:36;23.20;74.60
41756;DHT22;27435;48.480;9.258;2022-07-04T08:20:03;23.20;74.00
41756;DHT22;27435;48.480;9.258;2022-07-04T08:22:29;24.00;72.70
41756;DHT22;27435;48.480;9.258;2022-07-04T08:24:54;24.20;71.10
41756;DHT22;27435;48.480;9.258;2022-07-04T08:27:20;23.80;71.70
41756;DHT22;27435;48.480;9.258;2022-07-04T08:29:48;24.00;71.80
41756;DHT22;27435;48.480;9.258;2022-07-04T08:32:14;23.80;72.80
41756;DHT22;27435;48.480;9.258;2022-07-04T08:34:39;23.50;74.00
41756;DHT22;27435;48.480;9.258;2022-07-04T08:37:05;23.80;74.80
41756;DHT22;27435;48.480;9.258;2022-07-04T08:39:31;23.70;75.40
41756;DHT22;27435;48.480;9.258;2022-07-04T08:42:02;23.00;76.90
41756;DHT22;27435;48.480;9.258;2022-07-04T08:44:29;22.80;78.00
41756;DHT22;27435;48.480;9.258;2022-07-04T08:46:55;22.40;79.50
41756;DHT22;27435;48.480;9.258;2022-07-04T08:49:23;22.20;79.40
41756;DHT22;27435;48.480;9.258;2022-07-04T08:51:56;22.20;80.10
41756;DHT22;27435;48.480;9.258;2022-07-04T08:54:25;22.60;78.90
41756;DHT22;27435;48.480;9.258;2022-07-04T08:57:10;22.60;78.80
41756;DHT22;27435;48.480;9.258;2022-07-04T08:59:54;22.90;77.90
41756;DHT22;27435;48.480;9.258;2022-07-04T09:02:22;22.80;77.80
41756;DHT22;27435;48.480;9.258;2022-07-04T09:04:50;23.10;77.10
41756;DHT22;27435;48.480;9.258;2022-07-04T09:07:16;23.60;76.00
41756;DHT22;27435;48.480;9.258;2022-07-04T09:09:43;23.60;75.60
41756;DHT22;27435;48.480;9.258;2022-07-04T09:12:10;23.30;76.30
41756;DHT22;27435;48.480;9.258;2022-07-04T09:14:36;23.90;75.90
41756;DHT22;27435;48.480;9.258;2022-07-04T09:17:02;23.90;75.00
41756;DHT22;27435;48.480;9.258;2022-07-04T09:19:29;23.90;75.30
41756;DHT22;27435;48.480;9.258;2022-07-04T09:21:54;24.10;73.70
41756;DHT22;27435;48.480;9.258;2022-07-04T09:24:45;23.70;74.80
41756;DHT22;27435;48.480;9.258;2022-07-04T09:27:11;23.60;75.80
41756;DHT22;27435;48.480;9.258;2022-07-04T09:29:52;23.60;75.10
41756;DHT22;27435;48.480;9.258;2022-07-04T09:34:59;23.60;74.80
41756;DHT22;27435;48.480;9.258;2022-07-04T09:37:34;23.60;75.40
41756;DHT22;27435;48.480;9.258;2022-07-04T09:40:01;23.80;74.40
41756;DHT22;27435;48.480;9.258;2022-07-04T09:42:34;24.10;73.50
41756;DHT22;27435;48.480;9.258;2022-07-04T09:45:05;23.80;74.80
41756;DHT22;27435;48.480;9.258;2022-07-04T09:47:31;23.90;73.80
41756;DHT22;27435;48.480;9.258;2022-07-04T09:52:25;23.80;74.40
41756;DHT22;27435;48.480;9.258;2022-07-04T09:54:57;23.60;75.10
41756;DHT22;27435;48.480;9.258;2022-07-04T09:57:23;23.70;75.30
41756;DHT22;27435;48.480;9.258;2022-07-04T09:59:49;23.80;74.30
41756;DHT22;27435;48.480;9.258;2022-07-04T10:02:15;23.80;74.20
41756;DHT22;27435;48.480;9.258;2022-07-04T10:04:51;23.00;75.80
41756;DHT22;27435;48.480;9.258;2022-07-04T10:07:49;23.20;75.70
41756;DHT22;27435;48.480;9.258;2022-07-04T10:10:33;23.70;74.80
41756;DHT22;27435;48.480;9.258;2022-07-04T10:13:19;23.60;75.80
41756;DHT22;27435;48.480;9.258;2022-07-04T10:15:45;24.30;72.60
41756;DHT22;27435;48.480;9.258;2022-07-04T10:18:10;24.40;71.80
41756;DHT22;27435;48.480;9.258;2022-07-04T10:20:36;24.30;72.60
41756;DHT22;27435;48.480;9.258;2022-07-04T10:23:03;24.00;73.90
41756;DHT22;27435;48.480;9.258;2022-07-04T10:25:29;23.80;73.40
41756;DHT22;27435;48.480;9.258;2022-07-04T10:27:55;23.40;75.50
41756;DHT22;27435;48.480;9.258;2022-07-04T10:30:26;23.60;74.70
41756;DHT22;27435;48.480;9.258;2022-07-04T10:32:53;23.40;75.20
41756;DHT22;27435;48.480;9.258;2022-07-04T10:35:53;23.10;76.20
41756;DHT22;27435;48.480;9.258;2022-07-04T10:39:05;23.40;76.00
41756;DHT22;27435;48.480;9.258;2022-07-04T10:41:07;23.50;75.10
41756;DHT22;27435;48.480;9.258;2022-07-04T10:48:36;24.10;74.40
41756;DHT22;27435;48.480;9.258;2022-07-04T10:51:02;24.00;73.70
41756;DHT22;27435;48.480;9.258;2022-07-04T10:53:29;23.80;72.80
41756;DHT22;27435;48.480;9.258;2022-07-04T10:56:31;23.80;72.80
41756;DHT22;27435;48.480;9.258;2022-07-04T10:58:52;24.20;73.20
41756;DHT22;27435;48.480;9.258;2022-07-04T11:01:19;24.20;73.10
41756;DHT22;27435;48.480;9.258;2022-07-04T11:03:49;24.00;72.60
41756;DHT22;27435;48.480;9.258;2022-07-04T11:09:17;23.90;71.00
41756;DHT22;27435;48.480;9.258;2022-07-04T11:12:03;24.20;70.10
41756;DHT22;27435;48.480;9.258;2022-07-04T11:14:32;24.30;70.30
41756;DHT22;27435;48.480;9.258;2022-07-04T11:16:59;24.50;68.80
41756;DHT22;27435;48.480;9.258;2022-07-04T11:19:25;24.80;67.80
41756;DHT22;27435;48.480;9.258;2022-07-04T11:21:56;24.80;68.00
41756;DHT22;27435;48.480;9.258;2022-07-04T11:24:22;24.40;68.20
41756;DHT22;27435;48.480;9.258;2022-07-04T11:26:48;24.20;69.60
41756;DHT22;27435;48.480;9.258;2022-07-04T11:29:14;24.50;71.00
41756;DHT22;27435;48.480;9.258;2022-07-04T11:31:48;24.40;71.00
41756;DHT22;27435;48.480;9.258;2022-07-04T11:34:13;24.50;70.10
41756;DHT22;27435;48.480;9.258;2022-07-04T11:36:41;24.40;69.90
41756;DHT22;27435;48.480;9.258;2022-07-04T11:39:09;24.30;70.20
41756;DHT22;27435;48.480;9.258;2022-07-04T11:41:44;24.70;69.60
41756;DHT22;27435;48.480;9.258;2022-07-04T11:44:30;24.70;68.40
41756;DHT22;27435;48.480;9.258;2022-07-04T11:47:23;24.70;68.20
41756;DHT22;27435;48.480;9.258;2022-07-04T11:49:58;24.80;68.20
41756;DHT22;27435;48.480;9.258;2022-07-04T11:52:26;24.80;67.80
41756;DHT22;27435;48.480;9.258;2022-07-04T11:54:52;24.40;68.20
41756;DHT22;27435;48.480;9.258;2022-07-04T11:57:24;24.70;68.50
41756;DHT22;27435;48.480;9.258;2022-07-04T11:59:59;24.90;69.00
41756;DHT22;27435;48.480;9.258;2022-07-04T12:02:26;24.90;68.70
41756;DHT22;27435;48.480;9.258;2022-07-04T12:04:52;25.10;68.40
41756;DHT22;27435;48.480;9.258;2022-07-04T12:07:20;25.10;68.40
41756;DHT22;27435;48.480;9.258;2022-07-04T12:09:46;25.50;68.70
41756;DHT22;27435;48.480;9.258;2022-07-04T12:12:14;25.70;67.70
41756;DHT22;27435;48.480;9.258;2022-07-04T12:15:06;25.70;68.90
41756;DHT22;27435;48.480;9.258;2022-07-04T12:17:35;26.10;67.50
41756;DHT22;27435;48.480;9.258;2022-07-04T12:20:03;26.40;66.80
41756;DHT22;27435;48.480;9.258;2022-07-04T12:22:41;26.80;66.00
41756;DHT22;27435;48.480;9.258;2022-07-04T12:25:19;27.00;64.10
41756;DHT22;27435;48.480;9.258;2022-07-04T12:27:52;27.30;63.90
41756;DHT22;27435;48.480;9.258;2022-07-04T12:30:18;27.60;63.30
41756;DHT22;27435;48.480;9.258;2022-07-04T12:32:49;27.50;62.30
41756;DHT22;27435;48.480;9.258;2022-07-04T12:38:29;26.80;62.80
41756;DHT22;27435;48.480;9.258;2022-07-04T12:40:59;26.80;62.70
41756;DHT22;27435;48.480;9.258;2022-07-04T12:46:27;26.40;63.40
41756;DHT22;27435;48.480;9.258;2022-07-04T12:48:55;26.40;63.80
41756;DHT22;27435;48.480;9.258;2022-07-04T12:51:22;26.60;61.80
41756;DHT22;27435;48.480;9.258;2022-07-04T12:53:51;26.40;62.50
41756;DHT22;27435;48.480;9.258;2022-07-04T12:56:36;26.40;62.10
41756;DHT22;27435;48.480;9.258;2022-07-04T12:59:07;26.70;61.10
41756;DHT22;27435;48.480;9.258;2022-07-04T13:01:33;26.50;61.50
41756;DHT22;27435;48.480;9.258;2022-07-04T13:04:00;25.90;62.80
41756;DHT22;27435;48.480;9.258;2022-07-04T13:06:26;26.70;60.90
41756;DHT22;27435;48.480;9.258;2022-07-04T13:08:52;27.30;61.30
41756;DHT22;27435;48.480;9.258;2022-07-04T13:11:21;27.00;62.20
41756;DHT22;27435;48.480;9.258;2022-07-04T13:14:05;27.00;60.90
41756;DHT22;27435;48.480;9.258;2022-07-04T13:16:31;27.10;61.80
41756;DHT22;27435;48.480;9.258;2022-07-04T13:18:57;27.10;60.60
41756;DHT22;27435;48.480;9.258;2022-07-04T13:21:23;27.30;60.10
41756;DHT22;27435;48.480;9.258;2022-07-04T13:23:49;27.70;60.50
41756;DHT22;27435;48.480;9.258;2022-07-04T13:26:15;27.90;58.80
41756;DHT22;27435;48.480;9.258;2022-07-04T13:28:41;27.70;58.00
41756;DHT22;27435;48.480;9.258;2022-07-04T13:31:06;28.00;58.30
41756;DHT22;27435;48.480;9.258;2022-07-04T13:33:32;27.90;57.00
41756;DHT22;27435;48.480;9.258;2022-07-04T13:35:58;28.50;57.30
41756;DHT22;27435;48.480;9.258;2022-07-04T13:38:24;28.50;56.60
41756;DHT22;27435;48.480;9.258;2022-07-04T13:40:50;28.90;56.40
41756;DHT22;27435;48.480;9.258;2022-07-04T13:43:16;28.80;56.00
41756;DHT22;27435;48.480;9.258;2022-07-04T13:45:42;28.80;55.70
41756;DHT22;27435;48.480;9.258;2022-07-04T13:48:10;28.70;55.80
41756;DHT22;27435;48.480;9.258;2022-07-04T13:50:36;28.70;56.40
41756;DHT22;27435;48.480;9.258;2022-07-04T13:53:09;28.90;56.80
41756;DHT22;27435;48.480;9.258;2022-07-04T13:55:35;29.70;55.40
41756;DHT22;27435;48.480;9.258;2022-07-04T13:58:05;29.90;54.20
41756;DHT22;27435;48.480;9.258;2022-07-04T14:00:32;28.70;57.10
41756;DHT22;27435;48.480;9.258;2022-07-04T14:02:59;29.20;54.60
41756;DHT22;27435;48.480;9.258;2022-07-04T14:05:25;29.00;55.10
41756;DHT22;27435;48.480;9.258;2022-07-04T14:07:51;28.80;55.30
41756;DHT22;27435;48.480;9.258;2022-07-04T14:10:17;28.70;55.20
41756;DHT22;27435;48.480;9.258;2022-07-04T14:12:43;28.60;56.80
41756;DHT22;27435;48.480;9.258;2022-07-04T14:15:09;28.30;57.20
41756;DHT22;27435;48.480;9.258;2022-07-04T14:17:35;28.20;56.70
41756;DHT22;27435;48.480;9.258;2022-07-04T14:20:03;28.40;56.50
41756;DHT22;27435;48.480;9.258;2022-07-04T14:22:29;28.70;55.80
41756;DHT22;27435;48.480;9.258;2022-07-04T14:24:54;29.20;53.50
41756;DHT22;27435;48.480;9.258;2022-07-04T14:27:20;29.00;54.00
41756;DHT22;27435;48.480;9.258;2022-07-04T14:29:46;29.00;54.70
41756;DHT22;27435;48.480;9.258;2022-07-04T14:32:12;29.80;53.00
41756;DHT22;27435;48.480;9.258;2022-07-04T14:34:38;30.60;52.60
41756;DHT22;27435;48.480;9.258;2022-07-04T14:37:03;31.20;50.50
41756;DHT22;27435;48.480;9.258;2022-07-04T14:39:29;29.50;54.40
41756;DHT22;27435;48.480;9.258;2022-07-04T14:41:55;28.80;56.20
41756;DHT22;27435;48.480;9.258;2022-07-04T14:44:20;28.80;56.00
41756;DHT22;27435;48.480;9.258;2022-07-04T14:46:46;28.40;56.50
41756;DHT22;27435;48.480;9.258;2022-07-04T14:49:12;28.50;55.30
41756;DHT22;27435;48.480;9.258;2022-07-04T14:51:38;28.80;54.90
41756;DHT22;27435;48.480;9.258;2022-07-04T14:54:08;28.50;56.80
41756;DHT22;27435;48.480;9.258;2022-07-04T14:56:34;29.30;56.20
41756;DHT22;27435;48.480;9.258;2022-07-04T14:58:59;29.60;53.40
41756;DHT22;27435;48.480;9.258;2022-07-04T15:01:25;29.60;54.40
41756;DHT22;27435;48.480;9.258;2022-07-04T15:03:52;29.50;54.80
41756;DHT22;27435;48.480;9.258;2022-07-04T15:06:18;30.10;53.00
41756;DHT22;27435;48.480;9.258;2022-07-04T15:08:44;29.80;52.30
41756;DHT22;27435;48.480;9.258;2022-07-04T15:11:09;29.30;54.50
41756;DHT22;27435;48.480;9.258;2022-07-04T15:13:35;30.60;52.40
41756;DHT22;27435;48.480;9.258;2022-07-04T15:16:01;31.10;51.00
41756;DHT22;27435;48.480;9.258;2022-07-04T15:18:26;30.70;51.70
41756;DHT22;27435;48.480;9.258;2022-07-04T15:20:52;29.80;52.80
41756;DHT22;27435;48.480;9.258;2022-07-04T15:23:36;29.60;53.40
41756;DHT22;27435;48.480;9.258;2022-07-04T15:26:21;29.60;53.00
41756;DHT22;27435;48.480;9.258;2022-07-04T15:28:46;29.40;55.20
41756;DHT22;27435;48.480;9.258;2022-07-04T15:31:12;29.10;54.90
41756;DHT22;27435;48.480;9.258;2022-07-04T15:33:38;28.30;57.30
41756;DHT22;27435;48.480;9.258;2022-07-04T15:36:05;28.10;57.90
41756;DHT22;27435;48.480;9.258;2022-07-04T15:38:31;27.80;57.60
41756;DHT22;27435;48.480;9.258;2022-07-04T15:40:56;27.20;59.50
41756;DHT22;27435;48.480;9.258;2022-07-04T15:43:24;27.20;60.10
41756;DHT22;27435;48.480;9.258;2022-07-04T15:45:50;27.10;58.70
41756;DHT22;27435;48.480;9.258;2022-07-04T15:48:16;26.80;59.40
41756;DHT22;27435;48.480;9.258;2022-07-04T15:50:41;26.50;59.80
41756;DHT22;27435;48.480;9.258;2022-07-04T15:53:07;26.30;60.90